Time;durP1;ratioP1;P1;durP2;ratioP2;P2;SDS_P1;SDS_P2;PMS_P1;PMS_P2;Temp;Humidity;BMP_temperature;BMP_pressure;BME280_temperature;BME280_humidity;BME280_pressure;Samples;Min_cycle;Max_cycle;Signal;HPM_P1;HPM_P2
2022/07/20 00:00:23;;;;;;;7.18;3.70;;;29.20;65.80;;;;;;5033207;28;20041;-64
2022/07/20 00:02:51;;;;;;;5.63;3.40;;;29.10;65.20;;;;;;5034481;28;20105;-64
2022/07/20 00:05:16;;;;;;;9.27;5.78;;;29.20;65.20;;;;;;5034456;28;20053;-63
2022/07/20 00:07:42;;;;;;;11.60;5.32;;;29.20;65.70;;;;;;5034052;28;20459;-63
2022/07/20 00:12:52;;;;;;;19.10;10.25;;;29.10;65.70;;;;;;5034502;28;20083;-63
2022/07/20 00:15:18;;;;;;;15.35;12.10;;;29.20;61.50;;;;;;5034163;28;20025;-64
2022/07/20 00:17:43;;;;;;;17.73;13.02;;;29.20;61.30;;;;;;5034326;28;20108;-63
2022/07/20 00:20:10;;;;;;;19.63;15.45;;;29.20;62.20;;;;;;5034170;28;20379;-63
2022/07/20 00:22:35;;;;;;;19.35;14.95;;;29.20;62.60;;;;;;5034030;28;20029;-64
2022/07/20 00:25:01;;;;;;;19.10;15.18;;;29.30;63.50;;;;;;5034204;28;20032;-64
2022/07/20 00:27:27;;;;;;;20.55;15.40;;;29.30;63.30;;;;;;5034144;28;20347;-64
2022/07/20 00:29:52;;;;;;;23.20;17.48;;;29.30;62.20;;;;;;5032847;28;20083;-63
2022/07/20 00:32:18;;;;;;;25.60;17.60;;;29.30;62.30;;;;;;5033835;28;20421;-63
2022/07/20 00:34:43;;;;;;;21.30;16.40;;;29.30;62.50;;;;;;5033774;28;20467;-64
2022/07/20 00:37:09;;;;;;;26.63;19.05;;;29.30;62.90;;;;;;5033662;28;20037;-63
2022/07/20 00:39:34;;;;;;;24.42;19.45;;;29.20;63.50;;;;;;5033680;28;20520;-63
2022/07/20 00:42:00;;;;;;;23.33;18.55;;;29.20;63.40;;;;;;5033818;28;20053;-63
2022/07/20 00:44:26;;;;;;;27.30;19.88;;;29.30;63.10;;;;;;5032650;28;20030;-63
2022/07/20 00:46:53;;;;;;;23.13;19.55;;;29.40;63.10;;;;;;5033471;28;20026;-63
2022/07/20 00:49:19;;;;;;;24.80;21.70;;;29.30;63.00;;;;;;5033407;28;20100;-63
2022/07/20 00:51:45;;;;;;;24.80;20.67;;;29.20;63.40;;;;;;5033196;28;20510;-63
2022/07/20 00:54:11;;;;;;;31.38;22.85;;;29.20;63.60;;;;;;5033723;28;20029;-63
2022/07/20 00:56:37;;;;;;;29.77;21.33;;;29.30;63.80;;;;;;5033366;28;20033;-63
2022/07/20 00:59:05;;;;;;;28.05;22.75;;;29.20;64.20;;;;;;5033537;28;20037;-63
2022/07/20 01:01:32;;;;;;;29.55;22.73;;;29.20;64.20;;;;;;5033022;28;20037;-64
2022/07/20 01:03:58;;;;;;;27.20;22.63;;;29.20;64.40;;;;;;5033355;28;20013;-63
2022/07/20 01:06:24;;;;;;;30.60;24.63;;;29.20;65.40;;;;;;5033203;28;20033;-63
2022/07/20 01:08:51;;;;;;;30.13;24.77;;;29.20;64.60;;;;;;5033415;28;20466;-63
2022/07/20 01:11:17;;;;;;;30.63;23.85;;;29.20;64.60;;;;;;5033489;28;20466;-63
2022/07/20 01:13:43;;;;;;;28.33;23.27;;;29.10;64.70;;;;;;5033221;28;20017;-63
2022/07/20 01:16:09;;;;;;;28.08;24.50;;;29.10;65.10;;;;;;5031958;28;20056;-63
2022/07/20 01:18:35;;;;;;;27.23;23.70;;;29.10;64.90;;;;;;5032726;28;20508;-63
2022/07/20 01:21:06;;;;;;;28.17;23.42;;;29.10;64.90;;;;;;5033326;28;20033;-63
2022/07/20 01:23:32;;;;;;;29.88;23.67;;;29.10;65.10;;;;;;5032987;28;20045;-64
2022/07/20 01:25:58;;;;;;;25.95;23.15;;;29.10;64.90;;;;;;5033300;28;20103;-64
2022/07/20 01:28:25;;;;;;;28.45;23.08;;;29.00;65.10;;;;;;5032726;28;20072;-63
2022/07/20 01:30:50;;;;;;;26.05;23.25;;;29.00;65.20;;;;;;5033071;28;20545;-63
2022/07/20 01:33:17;;;;;;;29.77;22.63;;;29.00;65.20;;;;;;5032745;28;20017;-63
2022/07/20 01:35:42;;;;;;;29.45;22.05;;;28.90;65.20;;;;;;5032977;28;20491;-63
2022/07/20 01:38:08;;;;;;;29.90;23.25;;;29.00;65.30;;;;;;5032955;28;20022;-64
2022/07/20 01:40:34;;;;;;;26.98;22.08;;;29.00;65.30;;;;;;5032775;28;20048;-63
2022/07/20 01:42:59;;;;;;;28.83;22.45;;;28.90;65.50;;;;;;5032736;28;20024;-63
2022/07/20 01:45:25;;;;;;;29.70;21.73;;;28.90;65.50;;;;;;5034043;28;20471;-63
2022/07/20 01:47:50;;;;;;;27.00;21.17;;;28.90;65.40;;;;;;5046553;28;20017;-64
2022/07/20 01:50:16;;;;;;;28.27;21.85;;;28.90;65.40;;;;;;5052064;28;20033;-63
2022/07/20 01:52:41;;;;;;;23.92;20.90;;;28.80;65.60;;;;;;5050108;28;20056;-63
2022/07/20 01:55:07;;;;;;;26.85;22.00;;;28.90;65.60;;;;;;5052133;28;20029;-63
2022/07/20 01:57:33;;;;;;;26.77;22.02;;;28.80;65.60;;;;;;5052846;28;20470;-63
2022/07/20 01:59:59;;;;;;;26.17;22.63;;;28.80;65.40;;;;;;5052631;28;20410;-63
2022/07/20 02:02:24;;;;;;;26.83;21.67;;;28.80;65.50;;;;;;5052429;28;20482;-63
2022/07/20 02:04:50;;;;;;;26.90;21.48;;;28.70;65.50;;;;;;5052965;28;20029;-63
2022/07/20 02:07:15;;;;;;;29.10;22.10;;;28.70;65.60;;;;;;5052765;28;20025;-63
2022/07/20 02:09:41;;;;;;;25.05;21.42;;;28.70;65.70;;;;;;5052506;28;20026;-64
2022/07/20 02:12:07;;;;;;;26.75;21.88;;;28.70;65.80;;;;;;5052700;28;20036;-63
2022/07/20 02:14:33;;;;;;;26.52;21.50;;;28.60;65.80;;;;;;5056335;28;20478;-63
2022/07/20 02:16:58;;;;;;;28.58;21.95;;;28.60;65.70;;;;;;5056247;28;20025;-63
2022/07/20 02:19:24;;;;;;;24.88;21.02;;;28.60;65.80;;;;;;5056457;28;20363;-64
2022/07/20 02:21:50;;;;;;;28.45;20.88;;;28.60;65.90;;;;;;5056269;28;20044;-63
2022/07/20 02:24:15;;;;;;;23.48;20.30;;;28.50;65.90;;;;;;5056240;28;20051;-63
2022/07/20 02:26:41;;;;;;;23.58;20.98;;;28.50;65.80;;;;;;5056066;28;20052;-63
2022/07/20 02:29:06;;;;;;;25.85;20.27;;;28.50;65.90;;;;;;5055986;28;20482;-63
2022/07/20 02:31:32;;;;;;;24.95;20.50;;;28.50;65.90;;;;;;5056075;28;20024;-63
2022/07/20 02:33:58;;;;;;;27.73;20.85;;;28.40;66.00;;;;;;5055931;28;20025;-64
2022/07/20 02:36:23;;;;;;;25.08;21.60;;;28.40;65.80;;;;;;5056032;28;20033;-63
2022/07/20 02:38:49;;;;;;;28.45;20.55;;;28.50;65.90;;;;;;5055996;28;20025;-63
2022/07/20 02:41:14;;;;;;;26.95;21.33;;;28.40;66.00;;;;;;5056025;28;20513;-64
2022/07/20 02:43:40;;;;;;;27.70;20.63;;;28.30;66.30;;;;;;5055876;28;20500;-63
2022/07/20 02:46:06;;;;;;;24.15;19.85;;;28.30;66.30;;;;;;5055864;28;20538;-63
2022/07/20 02:48:32;;;;;;;23.63;19.75;;;28.30;66.50;;;;;;5055775;28;20490;-63
2022/07/20 02:50:57;;;;;;;22.83;20.30;;;28.30;66.40;;;;;;5055846;28;20033;-63
2022/07/20 02:53:23;;;;;;;23.73;19.60;;;28.30;66.40;;;;;;5055793;28;20024;-63
2022/07/20 02:55:49;;;;;;;21.27;19.08;;;28.30;66.40;;;;;;5055608;28;20021;-63
2022/07/20 02:58:14;;;;;;;25.00;20.05;;;28.20;66.50;;;;;;5056082;28;20539;-63
2022/07/20 03:00:41;;;;;;;25.58;19.73;;;28.20;66.50;;;;;;5055088;28;20529;-63
2022/07/20 03:03:08;;;;;;;25.15;18.38;;;28.20;66.70;;;;;;5055774;28;20052;-63
2022/07/20 03:05:34;;;;;;;26.15;20.08;;;28.10;66.80;;;;;;5055618;28;20028;-63
2022/07/20 03:08:00;;;;;;;24.85;20.05;;;28.20;66.70;;;;;;5055547;28;20017;-63
2022/07/20 03:10:26;;;;;;;22.80;19.02;;;28.20;66.80;;;;;;5055284;28;20025;-63
2022/07/20 03:12:51;;;;;;;27.30;20.02;;;28.10;66.80;;;;;;5055235;28;20106;-63
2022/07/20 03:15:17;;;;;;;23.77;18.92;;;28.00;67.30;;;;;;5055304;28;20064;-63
2022/07/20 03:17:45;;;;;;;24.20;19.45;;;28.00;67.40;;;;;;5055482;28;20033;-63
2022/07/20 03:20:13;;;;;;;24.40;20.13;;;27.90;67.50;;;;;;5055214;28;20025;-64
2022/07/20 03:22:39;;;;;;;22.25;19.60;;;28.10;67.40;;;;;;5055099;28;20021;-64
2022/07/20 03:25:06;;;;;;;26.17;18.42;;;28.00;67.50;;;;;;5054810;28;20021;-64
2022/07/20 03:27:31;;;;;;;22.75;18.83;;;27.90;67.50;;;;;;5053881;28;20066;-63
2022/07/20 03:29:57;;;;;;;19.92;17.15;;;27.90;67.60;;;;;;5054626;28;20029;-63
2022/07/20 03:32:22;;;;;;;24.45;17.75;;;27.90;67.60;;;;;;5054919;28;20032;-63
2022/07/20 03:34:48;;;;;;;25.70;17.63;;;27.90;67.40;;;;;;5054847;28;20028;-63
2022/07/20 03:37:14;;;;;;;24.55;16.77;;;27.90;68.20;;;;;;5055144;28;20421;-63
2022/07/20 03:39:39;;;;;;;19.70;16.42;;;27.80;67.50;;;;;;5054689;28;20470;-63
2022/07/20 03:42:05;;;;;;;22.58;15.80;;;27.80;67.50;;;;;;5054973;28;20505;-63
2022/07/20 03:44:30;;;;;;;20.00;15.98;;;27.70;67.40;;;;;;5054422;28;20021;-64
2022/07/20 03:46:56;;;;;;;21.90;15.38;;;27.80;67.40;;;;;;5047763;28;20383;-63
2022/07/20 03:49:22;;;;;;;20.60;15.10;;;27.70;67.50;;;;;;5040224;28;20052;-63
2022/07/20 03:51:47;;;;;;;21.73;14.77;;;27.70;67.50;;;;;;5033829;28;20084;-63
2022/07/20 03:54:13;;;;;;;19.85;14.60;;;27.50;67.50;;;;;;5033441;28;20021;-63
2022/07/20 03:56:41;;;;;;;21.10;14.98;;;27.50;67.70;;;;;;5034471;28;20489;-63
2022/07/20 03:59:10;;;;;;;20.25;14.55;;;27.50;67.60;;;;;;5034476;28;20079;-63
2022/07/20 04:01:36;;;;;;;20.90;13.85;;;27.50;67.40;;;;;;5034549;28;20145;-63
2022/07/20 04:04:03;;;;;;;17.85;13.30;;;27.60;67.10;;;;;;5034555;28;20483;-63
2022/07/20 04:06:28;;;;;;;14.63;12.50;;;27.50;67.00;;;;;;5034353;28;20017;-63
2022/07/20 04:08:54;;;;;;;17.83;12.80;;;27.50;66.90;;;;;;5034468;28;20025;-63
2022/07/20 04:11:20;;;;;;;14.98;12.40;;;27.50;66.80;;;;;;5034555;28;20482;-63
2022/07/20 04:13:45;;;;;;;16.85;12.93;;;27.50;66.90;;;;;;5034231;28;20056;-63
2022/07/20 04:16:11;;;;;;;21.13;12.90;;;27.50;66.70;;;;;;5034175;28;20534;-63
2022/07/20 04:18:36;;;;;;;17.80;12.27;;;27.50;66.70;;;;;;5034377;28;20386;-63
2022/07/20 04:21:02;;;;;;;15.20;11.80;;;27.40;66.80;;;;;;5034104;28;20390;-63
2022/07/20 04:23:28;;;;;;;15.15;12.18;;;27.40;66.90;;;;;;5034112;28;20028;-63
2022/07/20 04:25:53;;;;;;;15.30;12.13;;;27.30;67.00;;;;;;5033925;28;20036;-63
2022/07/20 04:28:19;;;;;;;19.23;11.70;;;27.40;67.00;;;;;;5033834;28;20417;-63
2022/07/20 04:30:44;;;;;;;15.05;12.15;;;27.30;67.20;;;;;;5034009;28;20546;-64
2022/07/20 04:33:10;;;;;;;16.90;12.15;;;27.30;67.40;;;;;;5033957;28;20495;-64
2022/07/20 04:35:36;;;;;;;16.73;11.93;;;27.20;67.70;;;;;;5033276;28;20052;-63
2022/07/20 04:38:01;;;;;;;16.35;12.88;;;27.10;67.70;;;;;;5033548;28;20049;-63
2022/07/20 04:40:27;;;;;;;18.98;12.85;;;27.20;67.90;;;;;;5033990;28;20037;-63
2022/07/20 04:42:52;;;;;;;15.10;11.73;;;27.10;67.90;;;;;;5033520;28;20045;-63
2022/07/20 04:45:18;;;;;;;16.85;12.02;;;27.10;68.10;;;;;;5033893;28;20431;-63
2022/07/20 04:47:44;;;;;;;16.23;12.40;;;27.10;68.00;;;;;;5032453;28;20025;-63
2022/07/20 04:50:10;;;;;;;17.10;12.02;;;27.10;68.30;;;;;;5033615;28;20371;-63
2022/07/20 04:52:36;;;;;;;13.77;11.02;;;27.10;68.30;;;;;;5033398;28;20022;-63
2022/07/20 04:55:02;;;;;;;12.48;10.73;;;27.10;68.20;;;;;;5033788;28;20375;-63
2022/07/20 04:57:28;;;;;;;16.10;11.50;;;27.10;68.40;;;;;;5033299;28;20021;-63
2022/07/20 04:59:53;;;;;;;19.02;11.55;;;27.10;68.30;;;;;;5033387;28;20487;-63
2022/07/20 05:02:22;;;;;;;16.58;11.32;;;27.20;68.90;;;;;;5044563;28;20474;-63
2022/07/20 05:04:47;;;;;;;17.13;12.57;;;27.40;68.40;;;;;;5053251;28;20025;-63
2022/07/20 05:07:14;;;;;;;17.70;12.00;;;27.50;68.30;;;;;;5050783;28;20074;-63
2022/07/20 05:09:40;;;;;;;14.23;11.60;;;27.50;68.00;;;;;;5053188;28;20021;-63
2022/07/20 05:12:06;;;;;;;19.75;11.20;;;27.50;67.90;;;;;;5052849;28;20021;-63
2022/07/20 05:14:31;;;;;;;14.70;11.25;;;27.40;68.10;;;;;;5052991;28;20051;-63
2022/07/20 05:16:57;;;;;;;16.52;11.63;;;27.50;67.80;;;;;;5053157;28;20106;-63
2022/07/20 05:19:23;;;;;;;16.33;10.93;;;27.60;67.60;;;;;;5053272;28;20060;-63
2022/07/20 05:21:48;;;;;;;12.63;9.82;;;27.60;67.50;;;;;;5052852;28;20033;-63
2022/07/20 05:24:14;;;;;;;16.58;11.27;;;27.60;67.50;;;;;;5053182;28;20021;-63
2022/07/20 05:26:40;;;;;;;17.45;11.00;;;27.60;67.40;;;;;;5052883;28;20091;-63
2022/07/20 05:29:05;;;;;;;16.50;11.18;;;27.60;67.50;;;;;;5052821;28;20100;-63
2022/07/20 05:31:31;;;;;;;17.05;10.63;;;27.60;67.40;;;;;;5052653;28;20382;-63
2022/07/20 05:33:57;;;;;;;14.13;10.48;;;27.60;67.60;;;;;;5038115;28;20033;-68
2022/07/20 05:36:23;;;;;;;12.90;9.77;;;27.40;67.40;;;;;;5041359;28;20087;-69
2022/07/20 05:38:49;;;;;;;13.95;11.02;;;27.30;67.50;;;;;;5051692;28;20470;-67
2022/07/20 05:41:15;;;;;;;17.25;10.30;;;27.30;67.70;;;;;;5046825;28;20041;-67
2022/07/20 05:43:40;;;;;;;14.68;11.40;;;27.20;67.90;;;;;;5038069;28;20379;-68
2022/07/20 05:46:06;;;;;;;15.35;11.73;;;27.20;68.00;;;;;;5032423;28;20441;-65
2022/07/20 05:48:32;;;;;;;16.35;13.38;;;27.20;68.60;;;;;;5035030;28;20549;-71
2022/07/20 05:50:57;;;;;;;17.75;12.98;;;27.20;68.90;;;;;;5036241;28;20033;-73
2022/07/20 05:53:23;;;;;;;15.70;13.32;;;27.30;68.90;;;;;;5038276;28;20029;-65
2022/07/20 05:55:49;;;;;;;16.70;12.93;;;27.30;69.10;;;;;;5037016;28;20059;-65
2022/07/20 05:58:14;;;;;;;21.15;12.80;;;27.40;69.30;;;;;;5036401;28;20022;-66
2022/07/20 06:00:40;;;;;;;14.50;12.32;;;27.40;69.40;;;;;;5036713;28;20052;-66
2022/07/20 06:03:06;;;;;;;18.27;12.82;;;27.50;69.30;;;;;;5041130;28;20021;-65
2022/07/20 06:05:33;;;;;;;15.55;11.15;;;27.50;69.20;;;;;;5039830;28;20037;-67
2022/07/20 06:08:00;;;;;;;16.45;11.15;;;27.60;69.00;;;;;;5048411;28;20075;-67
2022/07/20 06:10:30;;;;;;;19.38;10.93;;;27.60;68.90;;;;;;5047458;28;20039;-67
2022/07/20 06:12:57;;;;;;;13.60;10.75;;;27.60;68.70;;;;;;5040682;28;20022;-71
2022/07/20 06:15:25;;;;;;;12.18;10.88;;;27.70;68.20;;;;;;5036690;28;20104;-75
2022/07/20 06:17:51;;;;;;;14.70;11.07;;;27.70;68.40;;;;;;5039339;28;20555;-68
2022/07/20 06:20:17;;;;;;;15.35;11.02;;;27.70;68.40;;;;;;5044508;28;20037;-71
2022/07/20 06:22:44;;;;;;;13.15;10.35;;;27.80;68.30;;;;;;5050823;28;20391;-69
2022/07/20 06:25:11;;;;;;;14.98;9.63;;;27.80;68.10;;;;;;5035791;28;20049;-69
2022/07/20 06:27:37;;;;;;;18.35;10.07;;;27.90;67.60;;;;;;5059772;28;20059;-69
2022/07/20 06:30:05;;;;;;;14.02;9.40;;;27.90;67.80;;;;;;5036339;28;20061;-69
2022/07/20 06:32:30;;;;;;;13.88;10.30;;;28.00;67.20;;;;;;5048571;28;20103;-72
2022/07/20 06:34:56;;;;;;;18.25;10.35;;;27.90;68.20;;;;;;5053885;28;20100;-67
2022/07/20 06:37:22;;;;;;;15.98;10.18;;;27.90;68.40;;;;;;5036170;28;20386;-76
2022/07/20 06:39:47;;;;;;;12.32;9.35;;;27.90;68.90;;;;;;5047005;28;20466;-71
2022/07/20 06:42:14;;;;;;;14.50;9.38;;;27.80;68.50;;;;;;5054583;28;20056;-70
2022/07/20 06:44:41;;;;;;;10.77;9.23;;;27.90;68.60;;;;;;5057186;28;20381;-70
2022/07/20 06:47:06;;;;;;;11.80;8.85;;;27.80;68.70;;;;;;5056318;28;20021;-68
2022/07/20 06:49:32;;;;;;;15.98;9.48;;;27.80;68.50;;;;;;5065656;28;20021;-67
2022/07/20 06:51:58;;;;;;;14.27;9.50;;;27.90;68.60;;;;;;5059101;28;20394;-69
2022/07/20 06:54:24;;;;;;;11.93;9.32;;;27.90;68.70;;;;;;5068831;28;20024;-70
2022/07/20 06:56:52;;;;;;;19.13;9.52;;;27.90;68.30;;;;;;5057351;28;20090;-71
2022/07/20 06:59:18;;;;;;;12.38;8.93;;;28.00;68.30;;;;;;5052280;28;20037;-64
2022/07/20 07:01:44;;;;;;;11.90;9.18;;;28.00;68.00;;;;;;5052750;28;20036;-66
2022/07/20 07:04:09;;;;;;;17.80;9.45;;;28.00;68.00;;;;;;5040785;28;20017;-68
2022/07/20 07:06:35;;;;;;;17.08;9.45;;;27.90;68.00;;;;;;5042424;28;20037;-68
2022/07/20 07:09:01;;;;;;;18.05;9.55;;;27.90;67.70;;;;;;5042794;28;20026;-67
2022/07/20 07:11:27;;;;;;;18.33;9.02;;;27.90;67.70;;;;;;5043198;28;20039;-66
2022/07/20 07:13:52;;;;;;;14.38;8.82;;;27.90;66.70;;;;;;5039369;28;20034;-67
2022/07/20 07:16:18;;;;;;;16.30;8.82;;;27.90;66.60;;;;;;5063665;28;20103;-67
2022/07/20 07:18:44;;;;;;;17.17;8.77;;;27.90;66.10;;;;;;5052097;28;20059;-68
2022/07/20 07:21:10;;;;;;;18.13;8.57;;;27.90;66.10;;;;;;5055130;28;20033;-68
2022/07/20 07:23:36;;;;;;;13.95;8.38;;;27.90;66.00;;;;;;5064859;28;20016;-69
2022/07/20 07:26:02;;;;;;;14.57;8.05;;;27.90;66.00;;;;;;5052248;28;20037;-67
2022/07/20 07:28:27;;;;;;;15.98;8.48;;;27.90;66.30;;;;;;5060820;28;20033;-65
2022/07/20 07:30:53;;;;;;;14.65;7.85;;;27.80;65.90;;;;;;5050136;28;20037;-65
2022/07/20 07:33:25;;;;;;;10.07;7.32;;;27.80;65.70;;;;;;5052561;28;20480;-68
2022/07/20 07:35:54;;;;;;;17.67;7.47;;;27.80;65.80;;;;;;5046755;28;20032;-66
2022/07/20 07:38:19;;;;;;;10.48;7.20;;;27.80;65.70;;;;;;5049738;28;20146;-69
2022/07/20 07:40:45;;;;;;;13.35;7.15;;;27.70;65.80;;;;;;5042589;28;20375;-71
2022/07/20 07:43:10;;;;;;;13.55;6.47;;;27.70;66.30;;;;;;5060475;28;20107;-69
2022/07/20 07:45:37;;;;;;;10.98;6.90;;;27.70;67.20;;;;;;5052076;28;20029;-73
2022/07/20 07:48:02;;;;;;;12.75;7.05;;;27.70;66.90;;;;;;5043323;28;20033;-68
2022/07/20 07:50:28;;;;;;;13.40;6.70;;;27.60;67.10;;;;;;5066982;28;20021;-68
2022/07/20 07:52:54;;;;;;;15.32;7.20;;;27.70;66.80;;;;;;5061509;28;20516;-64
2022/07/20 07:55:19;;;;;;;11.68;6.38;;;27.70;67.20;;;;;;5055956;28;20029;-70
2022/07/20 07:57:45;;;;;;;11.88;5.90;;;27.70;67.60;;;;;;5044555;28;20032;-76
2022/07/20 08:00:11;;;;;;;9.95;6.40;;;27.70;67.70;;;;;;5053618;28;20486;-74
2022/07/20 08:02:36;;;;;;;11.45;6.38;;;27.70;67.70;;;;;;5036882;28;20029;-70
2022/07/20 08:05:06;;;;;;;12.73;5.95;;;27.60;67.40;;;;;;5044141;28;20056;-78
2022/07/20 08:07:33;;;;;;;10.27;5.65;;;27.70;67.30;;;;;;5051488;28;20401;-71
2022/07/20 08:10:00;;;;;;;12.20;6.57;;;27.60;67.10;;;;;;5034146;28;20022;-72
2022/07/20 08:12:25;;;;;;;12.13;6.10;;;27.60;67.30;;;;;;5039160;28;20044;-77
2022/07/20 08:14:51;;;;;;;12.27;6.05;;;27.60;67.20;;;;;;5058645;28;20032;-67
2022/07/20 08:17:19;;;;;;;11.13;6.13;;;27.60;67.10;;;;;;5061732;28;20116;-75
2022/07/20 08:19:44;;;;;;;11.80;6.25;;;27.60;67.10;;;;;;5065315;28;20025;-68
2022/07/20 08:22:10;;;;;;;10.25;5.70;;;27.60;67.20;;;;;;5047984;28;20034;-68
2022/07/20 08:24:35;;;;;;;13.02;6.22;;;27.60;67.00;;;;;;5040042;28;20025;-68
2022/07/20 08:27:01;;;;;;;15.38;6.32;;;27.60;67.10;;;;;;5038692;28;20581;-68
2022/07/20 08:29:26;;;;;;;9.43;6.32;;;27.60;67.20;;;;;;5039108;28;20471;-67
2022/07/20 08:31:52;;;;;;;9.35;5.70;;;27.60;67.30;;;;;;5041328;28;20582;-69
2022/07/20 08:34:17;;;;;;;10.98;5.75;;;27.60;67.60;;;;;;5042974;28;20040;-68
2022/07/20 08:36:43;;;;;;;11.20;6.60;;;27.60;67.80;;;;;;5036415;28;20037;-68
2022/07/20 08:39:08;;;;;;;10.88;5.90;;;27.60;67.80;;;;;;5062393;28;20028;-68
2022/07/20 08:41:34;;;;;;;8.05;6.55;;;27.60;67.50;;;;;;5050784;28;20103;-68
2022/07/20 08:44:00;;;;;;;12.02;6.20;;;27.60;67.60;;;;;;5047311;28;20068;-68
2022/07/20 08:46:30;;;;;;;11.60;6.60;;;27.50;67.80;;;;;;5042376;28;20029;-63
2022/07/20 08:48:56;;;;;;;10.80;6.35;;;27.50;68.00;;;;;;5046839;28;20025;-63
2022/07/20 08:51:22;;;;;;;10.77;6.57;;;27.50;68.20;;;;;;5043643;28;20063;-63
2022/07/20 08:53:49;;;;;;;12.60;6.75;;;27.60;68.30;;;;;;5042847;28;20101;-63
2022/07/20 08:56:15;;;;;;;12.88;5.97;;;27.60;68.40;;;;;;5038328;28;20060;-63
2022/07/20 08:58:42;;;;;;;14.15;7.13;;;27.50;68.60;;;;;;5039659;28;20509;-63
2022/07/20 09:01:16;;;;;;;14.43;6.50;;;27.50;68.70;;;;;;5034753;28;20322;-63
2022/07/20 09:03:44;;;;;;;9.93;6.07;;;27.50;68.70;;;;;;5035036;28;20033;-62
2022/07/20 09:06:11;;;;;;;11.35;6.68;;;27.50;68.80;;;;;;5051510;28;20389;-63
2022/07/20 09:08:57;;;;;;;10.27;6.57;;;27.50;68.90;;;;;;5057464;28;20068;-63
2022/07/20 09:11:25;;;;;;;10.35;6.70;;;27.50;69.00;;;;;;5049687;28;20446;-63
2022/07/20 09:13:50;;;;;;;12.75;6.82;;;27.50;69.30;;;;;;5060618;28;20020;-64
2022/07/20 09:16:33;;;;;;;11.15;6.53;;;27.50;69.60;;;;;;5052067;28;20056;-63
2022/07/20 09:18:59;;;;;;;11.07;6.88;;;27.60;69.90;;;;;;5049969;28;20017;-62
2022/07/20 09:21:29;;;;;;;10.23;6.95;;;27.60;70.00;;;;;;5049984;28;20056;-62
2022/07/20 09:23:56;;;;;;;11.30;7.10;;;27.60;70.20;;;;;;5063358;28;20051;-62
2022/07/20 09:26:24;;;;;;;15.27;8.25;;;27.60;70.30;;;;;;5059527;28;20028;-63
2022/07/20 09:28:52;;;;;;;13.82;7.43;;;27.60;70.40;;;;;;5053290;28;20021;-63
2022/07/20 09:31:33;;;;;;;16.67;8.13;;;27.60;70.60;;;;;;5052054;28;20025;-63
2022/07/20 09:34:21;;;;;;;18.55;8.80;;;27.60;71.40;;;;;;5043575;28;20037;-63
2022/07/20 09:36:47;;;;;;;22.70;11.45;;;27.50;71.90;;;;;;5048377;28;20544;-64
2022/07/20 09:39:12;;;;;;;17.85;9.52;;;27.50;72.30;;;;;;5057374;28;20140;-64
2022/07/20 09:41:40;;;;;;;13.60;7.28;;;27.50;72.10;;;;;;5054589;28;20108;-63
2022/07/20 09:44:07;;;;;;;13.40;6.80;;;27.50;71.80;;;;;;5052839;28;20433;-64
2022/07/20 09:46:38;;;;;;;16.17;7.13;;;27.50;71.70;;;;;;5055748;28;20112;-64
2022/07/20 09:49:09;;;;;;;9.82;6.28;;;27.50;72.20;;;;;;5055150;28;20028;-65
2022/07/20 09:51:40;;;;;;;11.57;7.65;;;27.60;72.80;;;;;;5046401;28;20029;-65
2022/07/20 09:54:14;;;;;;;10.48;6.82;;;27.50;73.20;;;;;;5036010;28;20349;-64
2022/07/20 09:56:42;;;;;;;11.00;6.43;;;27.50;73.40;;;;;;5050345;28;20029;-65
2022/07/20 09:59:10;;;;;;;12.23;6.75;;;27.50;73.50;;;;;;5052484;28;20032;-64
2022/07/20 10:01:42;;;;;;;13.13;7.30;;;27.50;73.70;;;;;;5058196;28;20032;-65
2022/07/20 10:04:09;;;;;;;12.53;6.87;;;27.40;73.70;;;;;;5051704;28;20025;-65
2022/07/20 10:06:38;;;;;;;12.02;7.18;;;27.40;73.30;;;;;;5046690;28;20280;-65
2022/07/20 10:09:05;;;;;;;9.65;7.25;;;27.50;73.40;;;;;;5045377;28;20526;-64
2022/07/20 10:11:31;;;;;;;13.73;7.35;;;27.40;73.50;;;;;;5047641;28;20029;-64
2022/07/20 10:14:01;;;;;;;11.40;6.78;;;27.40;73.80;;;;;;5050885;28;20029;-64
2022/07/20 10:16:39;;;;;;;11.88;6.68;;;27.40;74.20;;;;;;5037708;28;20063;-64
2022/07/20 10:19:07;;;;;;;10.90;6.53;;;27.40;73.90;;;;;;5037716;28;20104;-64
2022/07/20 10:21:34;;;;;;;10.18;6.88;;;27.40;73.40;;;;;;5044732;28;20093;-64
2022/07/20 10:24:27;;;;;;;13.48;6.18;;;27.50;73.40;;;;;;5061467;28;20128;-65
2022/07/20 10:27:08;;;;;;;10.77;6.50;;;27.50;73.30;;;;;;5061140;28;20083;-65
2022/07/20 10:29:38;;;;;;;8.45;6.13;;;27.50;73.30;;;;;;5060581;28;20025;-64
2022/07/20 10:32:10;;;;;;;9.65;7.03;;;27.50;73.00;;;;;;5061353;28;20082;-63
2022/07/20 10:34:43;;;;;;;8.75;6.07;;;27.50;73.20;;;;;;5044703;28;20032;-63
2022/07/20 10:37:24;;;;;;;13.10;6.35;;;27.50;73.10;;;;;;5051213;28;20028;-63
2022/07/20 10:40:06;;;;;;;10.88;6.95;;;27.50;73.20;;;;;;5051891;28;20034;-64
2022/07/20 10:42:34;;;;;;;9.80;6.78;;;27.50;73.10;;;;;;5058355;28;20069;-64
2022/07/20 10:45:19;;;;;;;9.23;6.53;;;27.50;73.00;;;;;;5053684;28;20025;-63
2022/07/20 10:48:12;;;;;;;14.68;7.22;;;27.50;72.90;;;;;;5044307;28;20026;-63
2022/07/20 10:50:39;;;;;;;10.70;6.68;;;27.50;73.00;;;;;;5048345;28;20036;-64
2022/07/20 10:53:11;;;;;;;11.52;6.60;;;27.50;72.90;;;;;;5057087;28;20013;-63
2022/07/20 10:55:36;;;;;;;12.55;7.15;;;27.50;74.10;;;;;;5054548;28;20056;-63
2022/07/20 10:58:05;;;;;;;8.63;6.55;;;27.50;72.70;;;;;;5045724;28;20435;-63
2022/07/20 11:00:34;;;;;;;10.25;6.35;;;27.50;73.10;;;;;;5049944;28;20471;-63
2022/07/20 11:03:25;;;;;;;10.95;7.47;;;27.50;73.40;;;;;;5051457;28;20032;-63
2022/07/20 11:06:04;;;;;;;13.65;7.30;;;27.50;74.20;;;;;;5039125;28;20474;-64
2022/07/20 11:08:30;;;;;;;10.88;7.07;;;27.50;74.40;;;;;;5039263;28;20035;-64
2022/07/20 11:10:56;;;;;;;13.30;7.68;;;27.60;74.00;;;;;;5066614;28;20020;-63
2022/07/20 11:13:23;;;;;;;10.68;7.90;;;27.60;74.60;;;;;;5050371;28;20033;-65
2022/07/20 11:15:52;;;;;;;12.82;7.97;;;27.60;75.40;;;;;;5033107;28;20033;-63
2022/07/20 11:18:20;;;;;;;10.25;7.68;;;27.60;75.30;;;;;;5038374;28;20108;-64
2022/07/20 11:20:46;;;;;;;11.90;7.88;;;27.60;75.40;;;;;;5053323;28;20040;-62
2022/07/20 11:23:13;;;;;;;9.15;7.22;;;27.60;75.50;;;;;;5038834;28;20068;-63
2022/07/20 11:25:56;;;;;;;9.77;7.40;;;27.60;75.00;;;;;;5041844;28;20025;-63
2022/07/20 11:28:26;;;;;;;10.52;7.53;;;27.60;74.90;;;;;;5036081;28;20079;-62
2022/07/20 11:30:53;;;;;;;9.35;7.07;;;27.60;74.00;;;;;;5039870;28;20021;-63
2022/07/20 11:33:24;;;;;;;11.27;7.85;;;27.70;73.90;;;;;;5049711;28;20367;-62
2022/07/20 11:35:50;;;;;;;14.18;7.82;;;27.60;74.00;;;;;;5049084;28;20021;-63
2022/07/20 11:38:16;;;;;;;11.40;8.02;;;27.70;74.20;;;;;;5043766;28;20032;-65
2022/07/20 11:40:54;;;;;;;9.95;7.80;;;27.60;74.70;;;;;;5063395;28;20036;-63
2022/07/20 11:43:19;;;;;;;11.82;7.72;;;27.60;74.60;;;;;;5053788;28;20017;-63
2022/07/20 11:45:45;;;;;;;11.68;8.13;;;27.60;74.10;;;;;;5042391;28;20040;-64
2022/07/20 11:48:24;;;;;;;10.82;7.97;;;27.70;74.10;;;;;;5045598;28;20048;-64
2022/07/20 11:50:50;;;;;;;11.23;7.47;;;27.70;74.10;;;;;;5041574;28;20363;-64
2022/07/20 11:53:27;;;;;;;10.40;8.13;;;27.70;73.80;;;;;;5043462;28;20017;-63
2022/07/20 11:55:54;;;;;;;11.70;7.68;;;27.70;74.10;;;;;;5036966;28;20449;-63
2022/07/20 11:58:43;;;;;;;15.30;8.63;;;27.60;74.40;;;;;;5045226;28;20454;-63
2022/07/20 12:01:13;;;;;;;12.23;7.75;;;27.70;74.50;;;;;;5042011;28;20053;-64
2022/07/20 12:03:46;;;;;;;14.15;8.23;;;27.60;74.70;;;;;;5045407;28;20510;-64
2022/07/20 12:06:14;;;;;;;11.75;7.43;;;27.60;74.60;;;;;;5048425;28;20037;-64
2022/07/20 12:08:40;;;;;;;10.68;7.55;;;27.60;74.80;;;;;;5056758;28;20100;-64
2022/07/20 12:11:07;;;;;;;11.43;7.75;;;27.60;74.70;;;;;;5049617;28;20431;-65
2022/07/20 12:13:48;;;;;;;11.43;7.63;;;27.60;74.70;;;;;;5052121;28;20144;-64
2022/07/20 12:16:15;;;;;;;9.80;7.75;;;27.60;74.50;;;;;;5042454;28;20557;-64
2022/07/20 12:18:46;;;;;;;10.40;8.15;;;27.70;74.50;;;;;;5054536;28;20026;-64
2022/07/20 12:21:15;;;;;;;11.45;7.40;;;27.70;74.30;;;;;;5062756;28;20041;-65
2022/07/20 12:23:46;;;;;;;11.73;8.00;;;27.70;74.80;;;;;;5041998;28;20100;-64
2022/07/20 12:26:27;;;;;;;10.48;7.45;;;27.60;75.10;;;;;;5047826;28;20032;-64
2022/07/20 12:28:55;;;;;;;11.88;8.00;;;27.70;75.00;;;;;;5055764;28;20421;-64
2022/07/20 12:31:23;;;;;;;13.77;8.38;;;27.70;74.70;;;;;;5040629;28;20021;-64
2022/07/20 12:34:10;;;;;;;11.10;7.65;;;27.70;74.30;;;;;;5060859;28;20438;-64
2022/07/20 12:36:41;;;;;;;12.18;8.10;;;27.70;74.00;;;;;;5043030;28;20033;-64